createdAt,value
2019-03-29T00:01:30.779Z,9.10
2019-03-29T00:04:04.195Z,9.10
2019-03-29T00:06:36.407Z,9.20
2019-03-29T00:09:10.452Z,9.00
2019-03-29T00:11:43.172Z,8.80
2019-03-29T00:14:15.854Z,8.40
2019-03-29T00:16:49.181Z,8.40
2019-03-29T00:19:23.367Z,8.50
2019-03-29T00:21:57.504Z,8.60
2019-03-29T00:24:29.295Z,8.70
2019-03-29T00:27:01.001Z,8.50
2019-03-29T00:29:32.589Z,8.40
2019-03-29T00:32:05.982Z,8.50
2019-03-29T00:34:38.009Z,8.70
2019-03-29T00:37:10.877Z,8.80
2019-03-29T00:39:42.650Z,8.80
2019-03-29T00:42:15.126Z,8.70
2019-03-29T00:44:47.132Z,8.80
2019-03-29T00:47:18.818Z,8.70
2019-03-29T00:49:50.617Z,8.50
2019-03-29T00:52:22.831Z,8.40
2019-03-29T00:54:57.181Z,8.40
2019-03-29T00:57:28.720Z,8.30
2019-03-29T01:00:00.362Z,8.20
2019-03-29T01:02:32.702Z,8.40
2019-03-29T01:05:07.380Z,8.30
2019-03-29T01:07:42.133Z,8.50
2019-03-29T01:10:15.635Z,8.50
2019-03-29T01:12:47.390Z,8.40
2019-03-29T01:15:19.320Z,8.50
2019-03-29T01:17:50.965Z,8.50
2019-03-29T01:20:22.571Z,8.40
2019-03-29T01:22:54.276Z,8.50
2019-03-29T01:25:25.868Z,8.60
2019-03-29T01:27:58.515Z,8.40
2019-03-29T01:30:30.240Z,8.40
2019-03-29T01:33:02.170Z,8.40
2019-03-29T01:35:34.157Z,8.50
2019-03-29T01:38:20.828Z,8.50
2019-03-29T01:40:41.371Z,8.60
2019-03-29T01:43:13.280Z,8.50
2019-03-29T01:45:45.917Z,8.50
2019-03-29T01:48:17.632Z,8.50
2019-03-29T01:50:52.110Z,8.40
2019-03-29T01:53:23.777Z,8.40
2019-03-29T01:55:56.596Z,8.50
2019-03-29T01:58:29.420Z,8.50
2019-03-29T02:01:01.238Z,8.30
2019-03-29T02:03:34.428Z,8.50
2019-03-29T02:06:06.892Z,8.50
2019-03-29T02:08:39.927Z,8.40
2019-03-29T02:11:11.656Z,8.30
2019-03-29T02:13:46.482Z,8.50
2019-03-29T02:16:19.181Z,8.50
2019-03-29T02:18:52.004Z,8.50
2019-03-29T02:21:24.737Z,8.60
2019-03-29T02:23:57.089Z,8.50
2019-03-29T02:26:29.128Z,8.60
2019-03-29T02:29:03.346Z,8.50
2019-03-29T02:31:35.557Z,8.40
2019-03-29T02:34:11.689Z,8.10
2019-03-29T02:36:44.247Z,8.30
2019-03-29T02:39:15.881Z,8.20
2019-03-29T02:41:49.267Z,8.00
2019-03-29T02:44:20.831Z,8.10
2019-03-29T02:46:53.586Z,8.10
2019-03-29T02:49:27.179Z,7.90
2019-03-29T02:51:59.381Z,7.70
2019-03-29T02:54:31.987Z,7.60
2019-03-29T02:57:03.934Z,8.00
2019-03-29T02:59:38.590Z,7.70
2019-03-29T03:02:10.202Z,7.70
2019-03-29T03:04:42.252Z,7.70
2019-03-29T03:07:14.629Z,7.90
2019-03-29T03:09:46.978Z,7.70
2019-03-29T03:12:18.574Z,7.80
2019-03-29T03:14:53.081Z,7.90
2019-03-29T03:17:24.669Z,8.00
2019-03-29T03:19:57.603Z,7.70
2019-03-29T03:22:29.344Z,7.60
2019-03-29T03:25:01.077Z,7.40
2019-03-29T03:27:32.657Z,7.60
2019-03-29T03:30:04.311Z,7.60
2019-03-29T03:32:35.889Z,7.40
2019-03-29T03:35:09.948Z,7.50
2019-03-29T03:37:47.241Z,7.50
2019-03-29T03:40:20.503Z,7.60
2019-03-29T03:42:52.249Z,7.70
2019-03-29T03:45:23.939Z,7.50
2019-03-29T03:47:55.494Z,7.50
2019-03-29T03:50:44.855Z,7.50
2019-03-29T03:53:17.002Z,7.60
2019-03-29T03:55:48.979Z,7.50
2019-03-29T03:58:25.558Z,7.70
2019-03-29T04:00:59.182Z,7.60
2019-03-29T04:03:31.889Z,7.70
2019-03-29T04:06:03.492Z,7.60
2019-03-29T04:08:35.301Z,7.60
2019-03-29T04:11:07.742Z,7.40
2019-03-29T04:13:40.348Z,7.20
2019-03-29T04:16:14.672Z,7.10
2019-03-29T04:18:46.225Z,7.00
2019-03-29T04:21:18.855Z,7.20
2019-03-29T04:23:50.526Z,7.30
2019-03-29T04:26:22.525Z,7.40
2019-03-29T04:29:04.172Z,7.50
2019-03-29T04:31:27.550Z,7.30
2019-03-29T04:33:59.317Z,7.20
2019-03-29T04:36:30.928Z,7.30
2019-03-29T04:39:02.495Z,7.20
2019-03-29T04:41:34.034Z,7.10
2019-03-29T04:44:06.115Z,7.20
2019-03-29T04:46:37.709Z,7.20
2019-03-29T04:49:10.836Z,7.10
2019-03-29T04:51:42.766Z,7.20
2019-03-29T04:54:14.274Z,6.90
2019-03-29T04:56:45.856Z,6.90
2019-03-29T04:59:17.460Z,6.90
2019-03-29T05:01:49.544Z,7.10
2019-03-29T05:04:21.157Z,7.10
2019-03-29T05:06:54.329Z,7.30
2019-03-29T05:09:26.900Z,7.30
2019-03-29T05:12:00.410Z,7.10
2019-03-29T05:14:31.980Z,7.00
2019-03-29T05:17:04.927Z,7.20
2019-03-29T05:19:37.488Z,7.10
2019-03-29T05:22:09.104Z,7.10
2019-03-29T05:24:40.776Z,7.20
2019-03-29T05:27:12.444Z,7.10
2019-03-29T05:29:44.007Z,7.10
2019-03-29T05:32:18.343Z,7.10
2019-03-29T05:34:50.236Z,6.90
2019-03-29T05:37:21.754Z,6.90
2019-03-29T05:39:53.497Z,6.90
2019-03-29T05:42:25.174Z,7.00
2019-03-29T05:44:56.789Z,7.10
2019-03-29T05:47:28.366Z,7.10
2019-03-29T05:50:00.051Z,7.40
2019-03-29T05:52:32.136Z,7.20
2019-03-29T05:55:03.699Z,7.00
2019-03-29T05:57:35.272Z,7.20
2019-03-29T06:00:08.555Z,7.40
2019-03-29T06:02:41.060Z,7.30
2019-03-29T06:05:12.733Z,7.40
2019-03-29T06:07:44.948Z,7.60
2019-03-29T06:10:16.776Z,7.60
2019-03-29T06:12:48.898Z,7.90
2019-03-29T06:15:20.792Z,8.20
2019-03-29T06:17:52.641Z,8.30
2019-03-29T06:20:24.419Z,8.50
2019-03-29T06:22:59.103Z,8.80
2019-03-29T06:25:30.817Z,8.80
2019-03-29T06:28:10.108Z,9.00
2019-03-29T06:30:42.720Z,9.00
2019-03-29T06:33:16.727Z,9.00
2019-03-29T06:36:01.306Z,8.90
2019-03-29T06:38:36.669Z,9.20
2019-03-29T06:41:08.453Z,9.30
2019-03-29T06:43:39.980Z,9.40
2019-03-29T06:46:11.605Z,9.50
2019-03-29T06:48:43.269Z,9.70
2019-03-29T06:51:15.098Z,10.00
2019-03-29T06:53:52.372Z,10.40
2019-03-29T06:56:22.285Z,10.90
2019-03-29T06:58:54.400Z,11.60
2019-03-29T07:01:26.047Z,12.30
2019-03-29T07:03:57.700Z,13.00
2019-03-29T07:06:30.627Z,13.40
2019-03-29T07:09:02.322Z,14.00
2019-03-29T07:11:35.264Z,14.20
2019-03-29T07:14:07.114Z,14.90
2019-03-29T07:16:39.526Z,15.30
2019-03-29T07:19:11.944Z,15.30
2019-03-29T07:22:03.980Z,15.70
2019-03-29T07:24:37.241Z,15.80
2019-03-29T07:27:21.609Z,16.60
2019-03-29T07:29:53.349Z,16.70
2019-03-29T07:32:29.918Z,17.20
2019-03-29T07:35:06.518Z,17.50
2019-03-29T07:37:59.192Z,17.90
2019-03-29T07:40:38.066Z,17.90
2019-03-29T07:43:11.761Z,18.80
2019-03-29T07:45:52.367Z,19.20
2019-03-29T07:48:27.133Z,19.20
2019-03-29T07:51:03.572Z,18.70
2019-03-29T07:53:45.462Z,18.70
2019-03-29T07:56:45.871Z,18.60
2019-03-29T07:59:18.718Z,18.70
2019-03-29T08:01:58.224Z,18.40
2019-03-29T08:05:52.244Z,18.60
2019-03-29T08:36:05.091Z,21.30
2019-03-29T08:38:36.932Z,20.70
2019-03-29T08:41:30.852Z,20.40
2019-03-29T08:44:02.830Z,20.90
2019-03-29T08:46:35.759Z,20.40
2019-03-29T08:49:08.323Z,20.90
2019-03-29T08:52:17.158Z,21.10
2019-03-29T08:54:51.198Z,21.80
2019-03-29T09:04:26.237Z,23.10
2019-03-29T09:07:00.148Z,23.40
2019-03-29T09:10:44.669Z,23.40
2019-03-29T09:13:18.144Z,23.60
2019-03-29T09:16:02.265Z,24.20
2019-03-29T09:18:34.212Z,24.00
2019-03-29T09:21:06.774Z,25.00
2019-03-29T09:23:38.430Z,24.50
2019-03-29T09:26:49.550Z,24.50
2019-03-29T09:29:21.887Z,25.70
2019-03-29T09:31:53.745Z,25.80
2019-03-29T09:34:28.855Z,25.80
2019-03-29T09:37:01.216Z,25.50
2019-03-29T09:39:33.730Z,24.90
2019-03-29T09:42:05.596Z,26.30
2019-03-29T09:44:37.385Z,26.00
2019-03-29T09:47:09.074Z,26.60
2019-03-29T09:49:46.679Z,27.10
2019-03-29T09:52:19.835Z,28.20
2019-03-29T09:54:56.539Z,28.70
2019-03-29T09:57:37.171Z,28.60
2019-03-29T10:00:01.662Z,30.10
2019-03-29T10:02:33.418Z,30.20
2019-03-29T10:05:05.626Z,29.90
2019-03-29T10:07:40.403Z,29.80
2019-03-29T10:10:12.056Z,30.60
2019-03-29T10:12:44.211Z,31.00
2019-03-29T10:15:15.879Z,32.40
2019-03-29T10:17:47.462Z,31.20
2019-03-29T10:20:20.350Z,31.50
2019-03-29T10:22:52.064Z,31.40
2019-03-29T10:25:23.593Z,32.70
2019-03-29T10:27:55.194Z,33.00
2019-03-29T10:30:46.985Z,33.20
2019-03-29T10:33:18.858Z,32.60
2019-03-29T10:35:53.209Z,33.40
2019-03-29T10:38:24.976Z,34.50
2019-03-29T10:40:56.588Z,33.70
2019-03-29T10:43:36.003Z,33.90
2019-03-29T10:46:18.326Z,34.80
2019-03-29T10:49:09.571Z,35.80
2019-03-29T10:51:42.345Z,35.70
2019-03-29T10:54:14.899Z,35.80
2019-03-29T10:56:46.559Z,36.00
2019-03-29T10:59:27.238Z,36.10
2019-03-29T11:01:56.531Z,36.90
2019-03-29T11:04:31.710Z,36.50
2019-03-29T11:07:01.914Z,36.80
2019-03-29T11:09:36.886Z,35.20
2019-03-29T11:12:07.321Z,35.70
2019-03-29T11:14:39.834Z,34.90
2019-03-29T11:17:11.452Z,34.60
2019-03-29T11:19:44.396Z,34.90
2019-03-29T11:22:16.059Z,36.10
2019-03-29T11:24:52.701Z,36.40
2019-03-29T11:27:24.279Z,35.60
2019-03-29T11:29:56.014Z,36.00
2019-03-29T11:32:30.635Z,35.50
2019-03-29T11:35:03.710Z,36.30
2019-03-29T11:37:56.726Z,37.50
2019-03-29T11:41:30.005Z,37.00
2019-03-29T11:52:12.221Z,35.70
2019-03-29T11:54:43.840Z,36.40
2019-03-29T11:57:15.393Z,37.00
2019-03-29T11:59:47.018Z,37.60
2019-03-29T12:02:31.397Z,38.20
2019-03-29T12:05:22.721Z,37.80
2019-03-29T12:08:09.224Z,37.70
2019-03-29T12:10:48.212Z,38.30
2019-03-29T12:13:22.431Z,38.30
2019-03-29T12:16:19.145Z,38.70
2019-03-29T12:19:38.068Z,38.10
2019-03-29T12:22:33.269Z,37.10
2019-03-29T12:25:09.483Z,37.70
2019-03-29T12:27:45.721Z,38.00
2019-03-29T12:30:31.271Z,38.70
2019-03-29T12:32:55.768Z,38.50
2019-03-29T12:35:36.941Z,38.80
2019-03-29T12:38:11.166Z,39.80
2019-03-29T12:40:45.562Z,38.40
2019-03-29T12:43:25.053Z,36.10
2019-03-29T12:45:59.858Z,36.40
2019-03-29T12:48:32.823Z,37.40
2019-03-29T12:51:06.909Z,36.80
2019-03-29T12:53:40.838Z,36.10
2019-03-29T12:56:13.267Z,37.10
2019-03-29T12:58:45.529Z,38.30
2019-03-29T13:01:21.892Z,39.20
2019-03-29T13:03:55.588Z,38.70
2019-03-29T13:06:29.146Z,38.50
2019-03-29T13:09:02.567Z,38.90
2019-03-29T13:11:40.642Z,39.40
2019-03-29T13:14:14.931Z,38.80
2019-03-29T13:16:47.502Z,38.50
2019-03-29T13:19:20.345Z,38.80
2019-03-29T13:21:52.894Z,38.60
2019-03-29T13:24:27.244Z,38.20
2019-03-29T13:27:27.309Z,36.40
2019-03-29T13:30:11.869Z,35.60
2019-03-29T13:32:43.902Z,36.40
2019-03-29T13:35:16.472Z,36.40
2019-03-29T13:37:48.483Z,36.50
2019-03-29T13:40:21.461Z,35.40
2019-03-29T13:42:53.553Z,35.50
2019-03-29T13:45:27.862Z,35.70
2019-03-29T13:48:01.333Z,36.70
2019-03-29T13:50:33.006Z,36.80
2019-03-29T13:53:05.899Z,36.50
2019-03-29T13:55:38.873Z,36.20
2019-03-29T13:58:13.120Z,36.80
2019-03-29T14:00:44.762Z,36.00
2019-03-29T14:03:16.395Z,35.40
2019-03-29T14:05:48.044Z,35.20
2019-03-29T14:08:20.919Z,34.90
2019-03-29T14:10:52.498Z,34.40
2019-03-29T14:13:25.189Z,34.50
2019-03-29T14:15:56.812Z,35.60
2019-03-29T14:18:28.406Z,35.90
2019-03-29T14:21:06.732Z,35.90
2019-03-29T14:23:38.303Z,35.80
2019-03-29T14:26:10.168Z,36.20
2019-03-29T14:28:41.862Z,35.60
2019-03-29T14:31:13.463Z,34.70
2019-03-29T14:33:47.219Z,33.80
2019-03-29T14:36:18.769Z,33.50
2019-03-29T14:38:50.374Z,33.00
2019-03-29T14:41:22.955Z,33.20
2019-03-29T14:43:54.611Z,32.60
2019-03-29T14:47:00.822Z,32.40
2019-03-29T14:49:32.412Z,32.30
2019-03-29T14:52:28.262Z,31.40
2019-03-29T14:55:01.362Z,30.90
2019-03-29T14:57:33.248Z,30.80
2019-03-29T15:00:15.552Z,30.60
2019-03-29T15:04:07.990Z,30.50
2019-03-29T15:08:00.516Z,30.10
2019-03-29T15:11:06.856Z,29.70
2019-03-29T15:13:39.640Z,29.80
2019-03-29T15:16:12.854Z,29.50
2019-03-29T15:18:47.859Z,29.00
2019-03-29T15:21:26.606Z,28.20
2019-03-29T15:23:58.254Z,28.00
2019-03-29T15:26:32.578Z,27.90
2019-03-29T15:29:04.211Z,27.70
2019-03-29T15:31:36.472Z,27.60
2019-03-29T15:34:16.955Z,27.40
2019-03-29T15:36:48.518Z,26.90
2019-03-29T15:39:28.019Z,26.10
2019-03-29T15:42:00.548Z,25.60
2019-03-29T15:44:34.755Z,25.20
2019-03-29T15:47:17.532Z,24.60
2019-03-29T15:49:55.829Z,24.60
2019-03-29T15:52:27.894Z,24.50
2019-03-29T15:55:00.390Z,24.40
2019-03-29T15:57:32.466Z,23.70
2019-03-29T16:00:45.263Z,23.20
2019-03-29T16:03:17.469Z,22.80
2019-03-29T16:06:59.981Z,22.50
2019-03-29T16:09:58.756Z,22.20
2019-03-29T16:12:48.650Z,22.10
2019-03-29T16:15:33.744Z,22.00
2019-03-29T16:17:54.236Z,22.00
2019-03-29T16:20:26.994Z,21.90
2019-03-29T16:22:58.723Z,21.70
2019-03-29T16:25:30.766Z,21.70
2019-03-29T16:28:03.530Z,21.70
2019-03-29T16:30:35.679Z,21.80
2019-03-29T16:33:07.736Z,21.70
2019-03-29T16:35:42.293Z,21.50
2019-03-29T16:38:14.179Z,21.10
2019-03-29T16:40:46.290Z,21.00
2019-03-29T16:43:19.645Z,20.90
2019-03-29T16:45:58.107Z,20.90
2019-03-29T16:48:30.379Z,20.70
2019-03-29T16:51:02.477Z,20.70
2019-03-29T16:53:34.900Z,20.50
2019-03-29T16:56:15.683Z,20.50
2019-03-29T16:58:47.735Z,20.30
2019-03-29T17:01:19.490Z,20.40
2019-03-29T17:03:51.184Z,20.10
2019-03-29T17:06:22.690Z,19.80
2019-03-29T17:08:54.429Z,19.50
2019-03-29T17:11:25.941Z,19.10
2019-03-29T17:13:57.750Z,18.70
2019-03-29T17:16:30.619Z,18.50
2019-03-29T17:19:02.731Z,18.20
2019-03-29T17:21:34.291Z,18.30
2019-03-29T17:24:05.899Z,18.20
2019-03-29T17:26:37.665Z,18.00
2019-03-29T17:29:09.157Z,17.70
2019-03-29T17:31:40.832Z,17.40
2019-03-29T17:34:12.432Z,17.20
2019-03-29T17:36:44.018Z,16.90
2019-03-29T17:39:16.384Z,16.80
2019-03-29T17:41:48.042Z,16.70
2019-03-29T17:44:19.544Z,16.60
2019-03-29T17:46:51.076Z,16.40
2019-03-29T17:49:22.572Z,16.40
2019-03-29T17:51:55.389Z,16.20
2019-03-29T17:54:27.017Z,16.10
2019-03-29T17:56:58.606Z,16.20
2019-03-29T17:59:48.539Z,16.30
2019-03-29T18:02:20.560Z,16.40
2019-03-29T18:04:58.128Z,16.20
2019-03-29T18:07:29.804Z,16.20
2019-03-29T18:10:01.372Z,16.20
2019-03-29T18:12:34.766Z,16.30
2019-03-29T18:15:08.928Z,16.20
2019-03-29T18:17:40.751Z,16.20
2019-03-29T18:20:14.089Z,16.30
2019-03-29T18:23:26.267Z,16.20
2019-03-29T18:26:04.307Z,15.90
2019-03-29T18:28:38.806Z,16.10
2019-03-29T18:39:48.468Z,15.90
2019-03-29T18:42:21.537Z,15.70
2019-03-29T18:44:59.986Z,15.60
2019-03-29T18:47:32.059Z,15.70
2019-03-29T18:50:04.400Z,15.50
2019-03-29T18:52:35.931Z,15.40
2019-03-29T18:55:08.042Z,15.00
2019-03-29T18:57:39.751Z,15.10
2019-03-29T19:00:11.810Z,15.30
2019-03-29T19:02:44.451Z,15.40
2019-03-29T19:05:26.342Z,15.00
2019-03-29T19:07:59.789Z,14.80
2019-03-29T19:10:32.601Z,14.70
2019-03-29T19:13:06.465Z,14.60
2019-03-29T19:15:38.385Z,14.80
2019-03-29T19:18:10.100Z,14.70
2019-03-29T19:20:44.884Z,14.60
2019-03-29T19:23:16.843Z,14.90
2019-03-29T19:25:48.706Z,14.90
2019-03-29T19:28:20.734Z,15.10
2019-03-29T19:30:53.401Z,15.20
2019-03-29T19:33:30.155Z,14.90
2019-03-29T19:36:02.213Z,14.60
2019-03-29T19:38:37.203Z,14.40
2019-03-29T19:41:11.199Z,14.60
2019-03-29T19:43:44.982Z,14.60
2019-03-29T19:46:18.267Z,14.70
2019-03-29T19:48:50.552Z,14.50
2019-03-29T19:51:23.202Z,14.30
2019-03-29T19:54:06.757Z,14.10
2019-03-29T19:56:29.196Z,14.00
2019-03-29T19:59:01.300Z,14.00
2019-03-29T20:01:33.156Z,13.90
2019-03-29T20:04:09.561Z,13.70
2019-03-29T20:06:49.714Z,13.70
2019-03-29T20:09:24.973Z,13.70
2019-03-29T20:11:56.989Z,13.70
2019-03-29T20:14:30.592Z,13.60
2019-03-29T20:17:02.561Z,13.50
2019-03-29T20:19:34.610Z,13.50
2019-03-29T20:22:06.399Z,13.50
2019-03-29T20:24:38.624Z,13.40
2019-03-29T20:27:12.146Z,13.40
2019-03-29T20:29:44.232Z,13.40
2019-03-29T20:32:22.404Z,13.40
2019-03-29T20:34:55.604Z,13.40
2019-03-29T20:37:28.606Z,13.60
2019-03-29T20:40:01.039Z,13.70
2019-03-29T20:42:34.610Z,13.50
2019-03-29T20:45:07.070Z,13.40
2019-03-29T20:47:42.343Z,13.50
2019-03-29T20:50:14.193Z,13.70
2019-03-29T20:52:46.595Z,13.80
2019-03-29T20:55:18.411Z,13.70
2019-03-29T20:57:50.259Z,13.50
2019-03-29T21:00:23.200Z,13.60
2019-03-29T21:02:55.106Z,13.90
2019-03-29T21:05:27.656Z,13.90
2019-03-29T21:07:59.521Z,13.80
2019-03-29T21:10:31.898Z,13.90
2019-03-29T21:13:07.056Z,13.90
2019-03-29T21:15:37.912Z,13.80
2019-03-29T21:18:13.007Z,13.70
2019-03-29T21:20:47.715Z,13.40
2019-03-29T21:23:25.716Z,13.20
2019-03-29T21:25:57.866Z,13.10
2019-03-29T21:28:30.024Z,13.00
2019-03-29T21:31:02.440Z,13.10
2019-03-29T21:33:34.281Z,13.00
2019-03-29T21:36:06.619Z,13.10
2019-03-29T21:38:40.063Z,13.10
2019-03-29T21:41:11.783Z,13.00
2019-03-29T21:43:46.606Z,13.10
2019-03-29T21:46:19.620Z,13.00
2019-03-29T21:48:51.382Z,13.00
2019-03-29T21:51:23.302Z,13.00
2019-03-29T21:53:54.957Z,12.80
2019-03-29T21:56:27.891Z,12.70
2019-03-29T21:58:59.570Z,12.60
2019-03-29T22:01:31.265Z,12.60
2019-03-29T22:04:04.447Z,12.50
2019-03-29T22:06:36.169Z,12.50
2019-03-29T22:09:10.140Z,12.50
2019-03-29T22:11:42.535Z,12.60
2019-03-29T22:14:14.150Z,12.50
2019-03-29T22:16:46.020Z,12.50
2019-03-29T22:19:18.134Z,12.50
2019-03-29T22:21:49.941Z,12.50
2019-03-29T22:24:23.894Z,12.30
2019-03-29T22:26:57.619Z,12.20
2019-03-29T22:29:30.709Z,12.40
2019-03-29T22:32:02.172Z,12.30
2019-03-29T22:34:35.635Z,12.20
2019-03-29T22:37:10.190Z,11.90
2019-03-29T22:39:41.714Z,11.60
2019-03-29T22:42:13.405Z,11.40
2019-03-29T22:44:45.179Z,11.30
2019-03-29T22:47:16.682Z,11.30
2019-03-29T22:49:48.237Z,11.30
2019-03-29T22:52:19.852Z,11.30
2019-03-29T22:54:51.730Z,11.30
2019-03-29T22:57:23.305Z,11.30
2019-03-29T22:59:55.300Z,11.20
2019-03-29T23:02:30.134Z,11.00
2019-03-29T23:05:02.533Z,11.00
2019-03-29T23:07:34.614Z,11.00
2019-03-29T23:10:07.056Z,10.90
2019-03-29T23:12:41.988Z,10.90
2019-03-29T23:15:13.971Z,10.90
2019-03-29T23:17:45.875Z,10.80
2019-03-29T23:20:17.453Z,10.90
2019-03-29T23:22:49.426Z,10.80
2019-03-29T23:25:21.016Z,10.70
2019-03-29T23:27:52.718Z,10.70
2019-03-29T23:30:25.018Z,10.60
2019-03-29T23:32:56.679Z,10.60
2019-03-29T23:35:28.403Z,10.60
2019-03-29T23:38:00.227Z,10.60
2019-03-29T23:40:31.746Z,10.50
2019-03-29T23:43:03.866Z,10.50
2019-03-29T23:45:35.455Z,10.40
2019-03-29T23:48:06.992Z,10.40
2019-03-29T23:50:38.574Z,10.40
2019-03-29T23:53:10.050Z,10.40
2019-03-29T23:55:41.701Z,10.30
2019-03-29T23:58:13.293Z,10.30
